Time;durP1;ratioP1;P1;durP2;ratioP2;P2;SDS_P1;SDS_P2;PMS_P1;PMS_P2;Temp;Humidity;BMP_temperature;BMP_pressure;BME280_temperature;BME280_humidity;BME280_pressure;Samples;Min_cycle;Max_cycle;Signal;HPM_P1;HPM_P2
2023/06/02 00:01:00;;;;;;;12.07;6.17;;;13.60;96.00;;;;;;4964053;28;20195;-71
2023/06/02 00:03:30;;;;;;;6.30;4.87;;;13.70;95.00;;;;;;4992052;28;20499;-70
2023/06/02 00:06:03;;;;;;;7.57;4.43;;;13.60;94.80;;;;;;4983041;28;20409;-70
2023/06/02 00:08:30;;;;;;;14.00;5.87;;;13.60;94.90;;;;;;4995347;28;20553;-68
2023/06/02 00:10:56;;;;;;;12.50;6.10;;;13.50;93.90;;;;;;5002645;28;20442;-70
2023/06/02 00:13:22;;;;;;;12.00;6.03;;;13.60;92.90;;;;;;4989049;28;20420;-71
2023/06/02 00:15:48;;;;;;;12.13;6.20;;;13.60;93.10;;;;;;4985050;28;20202;-70
2023/06/02 00:18:13;;;;;;;8.63;7.27;;;13.60;92.90;;;;;;5001878;28;20186;-71
2023/06/02 00:20:40;;;;;;;10.23;6.90;;;13.60;92.40;;;;;;4981706;28;20791;-72
2023/06/02 00:23:08;;;;;;;12.30;8.27;;;13.60;92.50;;;;;;4983013;28;20186;-71
2023/06/02 00:25:35;;;;;;;12.53;7.80;;;13.60;92.30;;;;;;4984210;28;20438;-71
2023/06/02 00:28:00;;;;;;;10.67;6.30;;;13.50;92.20;;;;;;4983303;28;20488;-70
2023/06/02 00:30:27;;;;;;;7.50;6.23;;;13.50;92.60;;;;;;4973014;28;20430;-70
2023/06/02 00:32:53;;;;;;;8.33;6.90;;;13.50;92.50;;;;;;4981718;28;20189;-71
2023/06/02 00:35:18;;;;;;;11.43;7.60;;;13.40;92.70;;;;;;4964353;28;20412;-72
2023/06/02 00:37:44;;;;;;;9.33;5.70;;;13.40;92.70;;;;;;4981610;28;20480;-70
2023/06/02 00:40:10;;;;;;;12.90;6.73;;;13.40;92.50;;;;;;4960440;28;20223;-70
2023/06/02 00:42:35;;;;;;;12.73;6.70;;;13.30;92.80;;;;;;4966879;29;20194;-70
2023/06/02 00:45:01;;;;;;;10.57;6.43;;;13.30;92.80;;;;;;4973233;28;20435;-70
2023/06/02 00:47:27;;;;;;;12.90;6.93;;;13.30;92.60;;;;;;4989496;28;20594;-74
2023/06/02 00:49:52;;;;;;;13.50;6.00;;;13.30;93.00;;;;;;4994237;28;20302;-70
2023/06/02 00:52:18;;;;;;;11.17;7.17;;;13.30;93.00;;;;;;4986830;28;20300;-70
2023/06/02 00:54:44;;;;;;;9.70;7.27;;;13.30;92.20;;;;;;4983055;28;20553;-70
2023/06/02 00:57:10;;;;;;;9.93;7.23;;;13.20;91.40;;;;;;4985110;28;20446;-69
2023/06/02 00:59:37;;;;;;;8.27;7.17;;;13.20;91.80;;;;;;4984878;28;20227;-70
2023/06/02 01:02:03;;;;;;;9.40;7.60;;;13.10;92.40;;;;;;4984813;28;20743;-71
2023/06/02 01:04:30;;;;;;;9.63;7.13;;;13.00;92.40;;;;;;4981870;28;20519;-71
2023/06/02 01:07:00;;;;;;;9.47;7.87;;;12.90;92.60;;;;;;4981688;28;20456;-70
2023/06/02 01:09:27;;;;;;;9.70;7.10;;;12.90;93.00;;;;;;4981680;28;20512;-70
2023/06/02 01:11:52;;;;;;;8.10;6.60;;;12.90;92.40;;;;;;4981252;28;20409;-71
2023/06/02 01:14:18;;;;;;;5.63;5.03;;;12.90;92.60;;;;;;4981548;28;20443;-69
2023/06/02 01:16:44;;;;;;;9.00;6.30;;;12.80;93.00;;;;;;4981139;28;20563;-71
2023/06/02 01:19:14;;;;;;;9.90;5.73;;;12.80;93.20;;;;;;4979376;28;20220;-70
2023/06/02 01:21:47;;;;;;;6.90;5.67;;;12.80;93.10;;;;;;4981599;28;20530;-70
2023/06/02 01:24:14;;;;;;;8.87;5.93;;;12.80;92.90;;;;;;4984056;28;20868;-70
2023/06/02 01:26:40;;;;;;;9.80;5.70;;;12.80;92.20;;;;;;4982731;28;20451;-71
2023/06/02 01:29:07;;;;;;;6.10;4.93;;;12.90;92.20;;;;;;4979147;28;20529;-70
2023/06/02 01:31:46;;;;;;;5.57;4.90;;;12.90;91.60;;;;;;4981327;28;20412;-70
2023/06/02 01:34:26;;;;;;;7.93;5.60;;;12.90;91.60;;;;;;4979259;28;20532;-71
2023/06/02 01:36:56;;;;;;;8.70;5.87;;;12.80;91.90;;;;;;4981403;28;20843;-70
2023/06/02 01:39:23;;;;;;;7.00;4.50;;;12.80;91.70;;;;;;4981289;28;20428;-69
2023/06/02 01:41:51;;;;;;;5.70;4.43;;;12.70;91.90;;;;;;4980867;28;20754;-70
2023/06/02 01:44:20;;;;;;;7.60;4.83;;;12.70;92.00;;;;;;4952099;28;20409;-71
2023/06/02 01:46:46;;;;;;;5.70;5.03;;;12.80;91.20;;;;;;4983539;28;20939;-71
2023/06/02 01:49:16;;;;;;;7.73;6.20;;;12.80;91.30;;;;;;4979515;28;20448;-71
2023/06/02 01:51:42;;;;;;;8.27;5.70;;;12.80;91.10;;;;;;4980379;28;20263;-72
2023/06/02 01:54:08;;;;;;;6.70;5.60;;;12.80;90.20;;;;;;4980503;28;20455;-70
2023/06/02 01:56:33;;;;;;;8.50;5.70;;;12.80;89.90;;;;;;4979733;28;20421;-70
2023/06/02 01:59:00;;;;;;;9.37;5.63;;;12.80;90.50;;;;;;4980731;28;20204;-68
2023/06/02 02:01:27;;;;;;;6.30;4.53;;;12.80;90.30;;;;;;4988264;28;20189;-69
2023/06/02 02:03:53;;;;;;;10.50;7.03;;;12.70;90.80;;;;;;4988040;28;20441;-70
2023/06/02 02:06:29;;;;;;;9.67;5.60;;;12.70;91.00;;;;;;4988898;28;20408;-70
2023/06/02 02:08:57;;;;;;;9.10;5.40;;;12.70;90.50;;;;;;4985343;28;20428;-70
2023/06/02 02:11:23;;;;;;;8.13;5.57;;;12.70;90.50;;;;;;4981867;28;20436;-69
2023/06/02 02:13:49;;;;;;;7.67;5.27;;;12.60;90.80;;;;;;4981477;28;20408;-71
2023/06/02 02:16:15;;;;;;;6.53;5.50;;;12.60;90.90;;;;;;4979708;28;20178;-72
2023/06/02 02:18:41;;;;;;;7.37;5.67;;;12.60;90.30;;;;;;4981279;28;20432;-70
2023/06/02 02:21:07;;;;;;;8.23;5.77;;;12.60;90.60;;;;;;4981377;28;20220;-69
2023/06/02 02:23:32;;;;;;;9.27;5.67;;;12.70;90.00;;;;;;4981522;28;20419;-72
2023/06/02 02:25:58;;;;;;;8.97;5.40;;;12.70;90.50;;;;;;4979907;28;20308;-70
2023/06/02 02:28:23;;;;;;;6.90;4.80;;;12.70;91.20;;;;;;4979769;28;20226;-71
2023/06/02 02:30:49;;;;;;;7.40;5.00;;;12.70;91.30;;;;;;4979417;28;20190;-71
2023/06/02 02:33:15;;;;;;;5.13;4.67;;;12.60;91.60;;;;;;4978698;28;20259;-70
2023/06/02 02:35:42;;;;;;;6.23;5.40;;;12.60;91.70;;;;;;4979508;28;20208;-70
2023/06/02 02:38:08;;;;;;;6.40;5.80;;;12.60;92.20;;;;;;4979312;28;20844;-70
2023/06/02 02:40:33;;;;;;;7.97;5.43;;;12.60;91.60;;;;;;4978051;28;20600;-69
2023/06/02 02:42:59;;;;;;;8.63;5.60;;;12.60;91.60;;;;;;4984377;28;20200;-70
2023/06/02 02:45:25;;;;;;;7.57;6.07;;;12.50;92.20;;;;;;4977905;28;20239;-70
2023/06/02 02:47:51;;;;;;;10.00;5.77;;;12.40;92.70;;;;;;4978398;28;20304;-70
2023/06/02 02:50:16;;;;;;;8.40;5.50;;;12.40;92.40;;;;;;4978330;28;20202;-69
2023/06/02 02:52:44;;;;;;;9.03;5.63;;;12.50;91.60;;;;;;4978399;28;20188;-70
2023/06/02 02:55:11;;;;;;;6.23;5.60;;;12.50;91.00;;;;;;4978190;28;20514;-71
2023/06/02 02:57:37;;;;;;;8.27;5.77;;;12.40;90.60;;;;;;4977677;28;20523;-70
2023/06/02 03:00:07;;;;;;;9.97;6.20;;;12.40;90.20;;;;;;4978332;28;20215;-70
2023/06/02 03:02:34;;;;;;;9.83;5.97;;;12.40;90.10;;;;;;4981334;28;20200;-70
2023/06/02 03:05:02;;;;;;;11.00;5.20;;;12.40;89.90;;;;;;4984099;28;20435;-72
2023/06/02 03:07:29;;;;;;;8.40;5.87;;;12.30;88.60;;;;;;4982108;28;20460;-71
2023/06/02 03:09:55;;;;;;;7.87;5.70;;;12.40;87.60;;;;;;4985671;28;20723;-70
2023/06/02 03:12:20;;;;;;;7.43;5.60;;;12.40;87.40;;;;;;4983178;28;20416;-70
2023/06/02 03:14:46;;;;;;;5.63;5.10;;;12.30;87.30;;;;;;4982180;28;20173;-69
2023/06/02 03:17:13;;;;;;;10.00;4.93;;;12.30;87.40;;;;;;4989469;28;20519;-71
2023/06/02 03:19:39;;;;;;;10.90;5.40;;;12.20;88.80;;;;;;4981693;28;20494;-69
2023/06/02 03:22:06;;;;;;;11.43;5.83;;;12.30;87.00;;;;;;4982510;28;20403;-70
2023/06/02 03:24:33;;;;;;;7.10;5.00;;;12.20;86.80;;;;;;4982115;28;20424;-69
2023/06/02 03:27:03;;;;;;;12.50;5.90;;;12.20;87.70;;;;;;4981731;28;20532;-70
2023/06/02 03:29:29;;;;;;;9.37;5.70;;;12.10;87.70;;;;;;4981294;28;20463;-70
2023/06/02 03:31:55;;;;;;;8.93;6.33;;;12.10;88.10;;;;;;4983140;28;20416;-71
2023/06/02 03:34:24;;;;;;;6.70;6.00;;;12.10;86.70;;;;;;4981220;28;20480;-68
2023/06/02 03:36:51;;;;;;;14.83;5.80;;;12.00;86.40;;;;;;4981757;28;20422;-70
2023/06/02 03:39:18;;;;;;;12.03;6.07;;;12.00;86.90;;;;;;4981522;28;20482;-69
2023/06/02 03:41:44;;;;;;;8.57;5.90;;;12.00;86.70;;;;;;4980683;28;20491;-71
2023/06/02 03:44:10;;;;;;;6.70;5.70;;;12.00;84.80;;;;;;4980730;28;20495;-69
2023/06/02 03:46:36;;;;;;;10.33;5.80;;;12.00;85.30;;;;;;4981295;28;20503;-68
2023/06/02 03:49:03;;;;;;;8.70;6.30;;;12.00;85.40;;;;;;4981292;28;20204;-70
2023/06/02 03:51:31;;;;;;;11.40;6.60;;;12.00;85.60;;;;;;4982761;28;20459;-70
2023/06/02 03:53:58;;;;;;;12.60;6.30;;;12.00;85.70;;;;;;4965366;28;20499;-70
2023/06/02 03:56:25;;;;;;;7.03;5.70;;;12.00;85.30;;;;;;4983641;28;20404;-71
2023/06/02 03:58:51;;;;;;;14.73;7.50;;;12.00;84.70;;;;;;4979902;28;20467;-71
2023/06/02 04:01:18;;;;;;;9.40;7.37;;;11.90;84.30;;;;;;4981743;28;20431;-69
2023/06/02 04:03:44;;;;;;;5.70;5.13;;;11.90;84.00;;;;;;4981018;28;20859;-70
2023/06/02 04:06:12;;;;;;;14.57;6.50;;;11.90;85.20;;;;;;4981574;28;20474;-69
2023/06/02 04:08:39;;;;;;;8.30;7.07;;;11.90;84.80;;;;;;4981539;28;20482;-70
2023/06/02 04:11:05;;;;;;;9.00;6.60;;;11.90;84.00;;;;;;4982402;28;20400;-71
2023/06/02 04:13:31;;;;;;;13.83;6.50;;;11.90;84.20;;;;;;4982085;28;20763;-70
2023/06/02 04:15:59;;;;;;;12.17;6.50;;;11.90;84.50;;;;;;4982804;28;20475;-69
2023/06/02 04:18:26;;;;;;;9.33;6.90;;;11.90;85.20;;;;;;4981669;28;20500;-70
2023/06/02 04:20:53;;;;;;;11.63;6.50;;;11.90;84.50;;;;;;4982266;28;20412;-70
2023/06/02 04:23:19;;;;;;;13.57;6.70;;;11.90;84.50;;;;;;4969639;28;20716;-69
2023/06/02 04:25:44;;;;;;;13.20;8.00;;;11.90;83.70;;;;;;4965226;28;20599;-72
2023/06/02 04:28:10;;;;;;;8.90;6.63;;;11.90;82.60;;;;;;4980941;28;20223;-70
2023/06/02 04:30:38;;;;;;;9.27;7.47;;;11.90;82.40;;;;;;4996420;28;20205;-70
2023/06/02 04:33:04;;;;;;;14.27;7.33;;;11.90;81.60;;;;;;4980764;28;20871;-70
2023/06/02 04:35:30;;;;;;;8.53;7.17;;;11.90;80.90;;;;;;4982055;28;20400;-70
2023/06/02 04:37:56;;;;;;;12.63;10.53;;;11.90;82.20;;;;;;4980937;28;20412;-71
2023/06/02 04:40:22;;;;;;;11.90;7.40;;;11.90;81.50;;;;;;4981392;28;20467;-70
2023/06/02 04:42:48;;;;;;;9.93;7.30;;;11.80;82.50;;;;;;4981274;28;20428;-69
2023/06/02 04:45:16;;;;;;;9.67;6.73;;;11.90;80.20;;;;;;4963703;28;20425;-71
2023/06/02 04:47:44;;;;;;;8.03;7.23;;;12.00;79.60;;;;;;4969365;28;20216;-69
2023/06/02 04:50:13;;;;;;;8.07;6.87;;;11.90;79.80;;;;;;4982708;28;20759;-70
2023/06/02 04:52:40;;;;;;;13.20;8.00;;;11.90;79.40;;;;;;4982598;28;20180;-70
2023/06/02 04:55:10;;;;;;;8.00;6.60;;;11.90;78.90;;;;;;4982621;28;20476;-73
2023/06/02 04:57:38;;;;;;;11.10;6.67;;;11.90;78.70;;;;;;4983710;28;20467;-71
2023/06/02 05:00:07;;;;;;;16.90;7.13;;;12.00;77.70;;;;;;4981610;28;20464;-70
2023/06/02 05:02:35;;;;;;;10.30;6.00;;;12.00;75.70;;;;;;4938209;28;20888;-70
2023/06/02 05:05:05;;;;;;;9.93;6.43;;;12.00;74.90;;;;;;4981080;28;20444;-71
2023/06/02 05:07:33;;;;;;;8.87;5.87;;;11.90;75.60;;;;;;4962761;28;20556;-70
2023/06/02 05:09:59;;;;;;;11.70;5.57;;;11.90;75.30;;;;;;4946634;29;20444;-72
2023/06/02 05:12:25;;;;;;;8.50;5.33;;;12.00;73.70;;;;;;4984668;28;20412;-71
2023/06/02 05:14:53;;;;;;;11.40;6.50;;;11.90;73.30;;;;;;4981551;28;20507;-71
2023/06/02 05:17:22;;;;;;;9.00;5.63;;;11.90;74.40;;;;;;4982232;28;20470;-70
2023/06/02 05:19:53;;;;;;;8.73;5.33;;;11.80;73.50;;;;;;4981825;28;20463;-70
2023/06/02 05:22:19;;;;;;;13.13;6.70;;;11.90;73.90;;;;;;4984325;28;20413;-73
2023/06/02 05:24:45;;;;;;;7.50;6.00;;;11.90;73.00;;;;;;4982544;28;20416;-70
2023/06/02 05:27:12;;;;;;;9.27;5.33;;;11.90;72.70;;;;;;4980914;28;20811;-72
2023/06/02 05:29:37;;;;;;;13.43;6.03;;;12.00;71.30;;;;;;4972557;28;20456;-71
2023/06/02 05:32:04;;;;;;;10.27;6.00;;;11.90;70.80;;;;;;4963940;29;20509;-71
2023/06/02 05:34:32;;;;;;;9.63;4.10;;;11.90;70.80;;;;;;4973237;28;20192;-71
2023/06/02 05:36:58;;;;;;;9.90;5.40;;;11.90;71.90;;;;;;4983821;28;20416;-72
2023/06/02 05:39:24;;;;;;;8.43;5.27;;;12.10;71.20;;;;;;4981984;28;20455;-74
2023/06/02 05:41:50;;;;;;;8.37;5.50;;;12.20;70.20;;;;;;4983508;28;20412;-77
2023/06/02 05:44:16;;;;;;;9.57;5.60;;;12.30;69.20;;;;;;4979728;28;20252;-73
2023/06/02 05:46:41;;;;;;;14.33;6.13;;;12.40;67.90;;;;;;4980015;28;20533;-72
2023/06/02 05:49:08;;;;;;;9.47;4.40;;;12.40;66.90;;;;;;4970782;28;20204;-73
2023/06/02 05:51:35;;;;;;;16.20;5.73;;;12.40;66.40;;;;;;4982396;28;20212;-73
2023/06/02 05:54:02;;;;;;;12.13;5.57;;;12.40;65.40;;;;;;4983533;28;20452;-71
2023/06/02 05:56:28;;;;;;;7.73;4.93;;;12.40;66.10;;;;;;4967531;28;20411;-72
2023/06/02 05:58:54;;;;;;;15.20;7.07;;;12.50;64.50;;;;;;4982919;28;20205;-71
2023/06/02 06:01:20;;;;;;;8.70;4.57;;;12.50;63.50;;;;;;4983279;28;20215;-71
2023/06/02 06:03:46;;;;;;;14.27;5.97;;;12.50;64.90;;;;;;4986085;28;20420;-73
2023/06/02 06:06:12;;;;;;;10.50;5.23;;;12.50;64.40;;;;;;4983054;28;20267;-74
2023/06/02 06:08:38;;;;;;;8.80;5.60;;;12.60;64.40;;;;;;4982101;28;20824;-74
2023/06/02 06:11:04;;;;;;;9.13;4.73;;;12.70;63.00;;;;;;4984584;28;20187;-76
2023/06/02 06:13:29;;;;;;;10.83;4.67;;;12.80;61.80;;;;;;4983646;28;20188;-70
2023/06/02 06:15:55;;;;;;;8.63;5.17;;;13.00;60.40;;;;;;4969614;28;20443;-73
2023/06/02 06:18:21;;;;;;;7.03;4.87;;;13.10;59.30;;;;;;4984178;28;20274;-73
2023/06/02 06:20:48;;;;;;;11.57;5.07;;;13.10;59.00;;;;;;4982637;28;20204;-73
2023/06/02 06:23:14;;;;;;;9.37;4.60;;;13.00;59.50;;;;;;4966221;28;20812;-71
2023/06/02 06:25:41;;;;;;;10.10;4.30;;;13.00;59.70;;;;;;4984891;28;20200;-75
2023/06/02 06:28:07;;;;;;;12.40;4.20;;;13.10;59.80;;;;;;4967094;28;20448;-72
2023/06/02 06:30:33;;;;;;;7.30;4.00;;;13.00;59.80;;;;;;4986742;28;20210;-75
2023/06/02 06:33:01;;;;;;;6.10;4.23;;;13.00;60.20;;;;;;4964110;28;20417;-72
2023/06/02 06:35:28;;;;;;;12.63;5.70;;;13.10;60.10;;;;;;4979813;28;20417;-73
2023/06/02 06:37:54;;;;;;;13.40;5.30;;;13.20;59.60;;;;;;4982125;28;20422;-72
2023/06/02 06:40:20;;;;;;;8.27;3.87;;;13.30;59.40;;;;;;4985557;28;20208;-72
2023/06/02 06:42:47;;;;;;;8.07;4.30;;;13.30;59.30;;;;;;4985328;28;20411;-73
2023/06/02 06:45:19;;;;;;;8.60;4.40;;;13.40;59.00;;;;;;4982632;28;20427;-72
2023/06/02 06:47:46;;;;;;;11.10;5.00;;;13.50;58.20;;;;;;4982449;28;20456;-74
2023/06/02 06:50:14;;;;;;;14.03;4.90;;;13.60;56.90;;;;;;4981614;28;20432;-73
2023/06/02 06:52:40;;;;;;;12.03;5.37;;;13.70;57.00;;;;;;4983090;28;21073;-73
2023/06/02 06:55:05;;;;;;;17.40;5.33;;;13.70;57.10;;;;;;5002789;28;20478;-73
2023/06/02 06:57:31;;;;;;;10.93;5.50;;;13.90;56.40;;;;;;4999980;28;20203;-73
2023/06/02 06:59:57;;;;;;;10.87;5.60;;;14.10;55.70;;;;;;4970317;28;20221;-71
2023/06/02 07:02:23;;;;;;;13.00;4.90;;;14.30;55.20;;;;;;4952468;28;20711;-73
2023/06/02 07:04:48;;;;;;;8.93;4.90;;;14.30;55.50;;;;;;4969081;28;20204;-74
2023/06/02 07:07:14;;;;;;;9.93;5.03;;;14.30;55.40;;;;;;4999484;28;20500;-73
2023/06/02 07:09:41;;;;;;;9.43;4.90;;;14.40;55.30;;;;;;5002234;28;20206;-72
2023/06/02 07:12:06;;;;;;;11.37;5.00;;;14.60;55.10;;;;;;5001366;28;20418;-72
2023/06/02 07:14:32;;;;;;;10.13;5.10;;;14.80;54.60;;;;;;4983537;28;20485;-74
2023/06/02 07:16:59;;;;;;;10.83;5.50;;;14.90;54.20;;;;;;4993525;28;20198;-71
2023/06/02 07:19:25;;;;;;;9.07;4.87;;;15.10;53.30;;;;;;4987241;28;20234;-75
2023/06/02 07:21:51;;;;;;;7.10;4.50;;;15.20;53.00;;;;;;4987337;28;20479;-74
2023/06/02 07:24:18;;;;;;;9.27;6.33;;;15.40;52.90;;;;;;4950501;28;20435;-76
2023/06/02 07:26:44;;;;;;;10.33;5.60;;;15.50;52.10;;;;;;4950401;28;20475;-75
2023/06/02 07:29:10;;;;;;;17.50;6.97;;;15.40;51.90;;;;;;4953977;29;20452;-73
2023/06/02 07:31:36;;;;;;;11.70;6.50;;;15.30;51.80;;;;;;4943239;29;20403;-71
2023/06/02 07:34:03;;;;;;;12.43;5.53;;;15.20;52.40;;;;;;4950585;29;20432;-75
2023/06/02 07:36:28;;;;;;;13.90;5.83;;;15.10;52.80;;;;;;4950729;29;20429;-74
2023/06/02 07:38:54;;;;;;;11.63;5.67;;;15.10;52.80;;;;;;4988154;28;20458;-76
2023/06/02 07:41:20;;;;;;;9.93;5.60;;;15.10;52.40;;;;;;4973919;28;20204;-76
2023/06/02 07:43:46;;;;;;;10.60;5.60;;;15.00;52.70;;;;;;4976839;28;20224;-73
2023/06/02 07:46:12;;;;;;;10.50;5.23;;;15.10;53.00;;;;;;4988641;28;20583;-76
2023/06/02 07:48:37;;;;;;;17.27;6.40;;;15.20;52.70;;;;;;4984754;28;20243;-73
2023/06/02 07:51:03;;;;;;;17.93;6.83;;;15.30;52.30;;;;;;4971037;28;20187;-73
2023/06/02 07:53:29;;;;;;;14.50;5.77;;;15.40;52.10;;;;;;4980734;28;20208;-73
2023/06/02 07:55:56;;;;;;;16.90;6.93;;;15.30;51.90;;;;;;4988046;28;20184;-74
2023/06/02 07:58:21;;;;;;;11.50;5.43;;;15.30;51.80;;;;;;4985541;28;20767;-75
2023/06/02 08:00:48;;;;;;;13.00;5.67;;;15.40;52.20;;;;;;4984273;28;20463;-75
2023/06/02 08:03:14;;;;;;;19.37;5.80;;;15.70;51.80;;;;;;4986881;28;20523;-75
2023/06/02 08:05:40;;;;;;;10.27;6.23;;;15.90;51.10;;;;;;4969969;28;20451;-74
2023/06/02 08:08:05;;;;;;;12.20;5.60;;;16.10;50.70;;;;;;4985700;28;20532;-72
2023/06/02 08:10:31;;;;;;;11.10;5.73;;;16.20;50.30;;;;;;4987614;28;20259;-72
2023/06/02 08:12:57;;;;;;;9.43;5.80;;;16.00;50.10;;;;;;4986944;28;20248;-75
2023/06/02 08:15:23;;;;;;;11.03;4.90;;;16.00;49.90;;;;;;4985913;28;20284;-74
2023/06/02 08:17:48;;;;;;;12.43;5.23;;;15.90;50.40;;;;;;4987428;28;20195;-73
2023/06/02 08:20:16;;;;;;;13.60;6.37;;;15.90;50.10;;;;;;4990189;28;20486;-74
2023/06/02 08:22:44;;;;;;;13.30;6.50;;;15.80;50.00;;;;;;4993692;28;20190;-77
2023/06/02 08:25:12;;;;;;;12.57;6.80;;;15.70;50.50;;;;;;4974440;28;20979;-75
2023/06/02 08:27:38;;;;;;;8.10;4.97;;;15.60;50.50;;;;;;4979336;28;20464;-74
2023/06/02 08:30:07;;;;;;;9.93;6.57;;;15.40;51.10;;;;;;4993226;28;20476;-72
2023/06/02 08:32:33;;;;;;;13.00;6.77;;;15.40;51.40;;;;;;4982120;28;20433;-73
2023/06/02 08:35:02;;;;;;;11.03;5.80;;;15.30;51.50;;;;;;4970103;28;20435;-76
2023/06/02 08:37:29;;;;;;;10.30;5.67;;;15.40;51.70;;;;;;4990356;28;20403;-74
2023/06/02 08:39:55;;;;;;;10.00;5.60;;;15.70;51.70;;;;;;4986772;28;20969;-73
2023/06/02 08:42:22;;;;;;;11.57;6.50;;;16.10;50.70;;;;;;4987486;28;20435;-74
2023/06/02 08:44:48;;;;;;;10.30;4.97;;;16.30;50.40;;;;;;4988094;28;20508;-74
2023/06/02 08:47:14;;;;;;;14.17;5.87;;;16.50;50.30;;;;;;4988586;28;20468;-74
2023/06/02 08:49:46;;;;;;;12.17;6.77;;;16.50;49.20;;;;;;4984242;28;20209;-75
2023/06/02 08:52:19;;;;;;;12.37;6.17;;;16.40;49.40;;;;;;4968344;28;20209;-72
2023/06/02 08:54:46;;;;;;;10.17;5.43;;;16.30;49.20;;;;;;4970646;28;20460;-76
2023/06/02 08:57:16;;;;;;;11.27;5.00;;;16.40;49.40;;;;;;4955373;28;20417;-72
2023/06/02 08:59:43;;;;;;;16.17;6.80;;;16.40;49.50;;;;;;4986367;28;20463;-73
2023/06/02 09:02:09;;;;;;;11.80;5.50;;;16.50;49.00;;;;;;4987578;28;20428;-74
2023/06/02 09:04:35;;;;;;;14.33;7.30;;;16.50;49.10;;;;;;4988728;28;20523;-77
2023/06/02 09:07:12;;;;;;;16.47;6.60;;;16.60;48.70;;;;;;4988814;28;20193;-73
2023/06/02 09:09:40;;;;;;;12.03;7.50;;;16.80;48.80;;;;;;4980382;28;20196;-75
2023/06/02 09:12:08;;;;;;;9.37;6.87;;;16.80;48.40;;;;;;4987353;28;20516;-75
2023/06/02 09:14:34;;;;;;;11.63;6.33;;;16.70;48.10;;;;;;4988160;28;20468;-76
2023/06/02 09:17:00;;;;;;;14.03;6.27;;;16.90;48.80;;;;;;4989263;28;20506;-74
2023/06/02 09:19:26;;;;;;;17.37;6.10;;;17.10;48.10;;;;;;4974313;28;20464;-74
2023/06/02 09:22:04;;;;;;;8.87;5.20;;;17.30;48.00;;;;;;4971437;28;20435;-76
2023/06/02 09:24:32;;;;;;;12.13;5.23;;;17.40;47.80;;;;;;4987839;28;20201;-72
2023/06/02 09:26:58;;;;;;;12.33;5.60;;;17.50;48.10;;;;;;4988905;28;21015;-76
2023/06/02 09:29:25;;;;;;;12.67;6.60;;;17.60;47.70;;;;;;4998097;28;20452;-74
2023/06/02 09:31:53;;;;;;;13.23;6.57;;;17.60;47.30;;;;;;4987635;28;20876;-74
2023/06/02 09:34:24;;;;;;;11.70;5.40;;;17.40;47.10;;;;;;4989203;28;20428;-74
2023/06/02 09:36:52;;;;;;;10.13;6.97;;;17.20;48.10;;;;;;4991145;28;20545;-74
2023/06/02 09:39:43;;;;;;;10.53;5.30;;;17.20;48.20;;;;;;4966998;29;20469;-75
2023/06/02 09:42:13;;;;;;;7.77;5.27;;;17.20;48.20;;;;;;4980742;28;20432;-76
2023/06/02 09:44:40;;;;;;;13.50;7.10;;;17.20;48.40;;;;;;4988435;28;20419;-75
2023/06/02 09:47:26;;;;;;;13.83;5.60;;;17.20;48.10;;;;;;4988157;28;20964;-72
2023/06/02 09:49:52;;;;;;;10.50;5.70;;;16.90;48.70;;;;;;4985472;28;20452;-73
2023/06/02 09:52:18;;;;;;;8.33;5.50;;;16.90;49.10;;;;;;4987056;28;20432;-74
2023/06/02 09:54:48;;;;;;;9.23;6.33;;;16.70;49.40;;;;;;5004080;28;20201;-74
2023/06/02 09:57:16;;;;;;;9.13;5.90;;;16.70;49.30;;;;;;4972842;28;20839;-74
2023/06/02 09:59:43;;;;;;;15.37;6.40;;;16.70;49.70;;;;;;4986674;28;20442;-74
2023/06/02 10:02:10;;;;;;;14.53;5.70;;;16.90;49.10;;;;;;4985698;28;20414;-74
2023/06/02 10:04:36;;;;;;;11.00;5.70;;;17.20;48.60;;;;;;4969864;28;20452;-76
2023/06/02 10:07:23;;;;;;;21.40;8.23;;;17.00;48.70;;;;;;4990327;28;20455;-76
2023/06/02 10:10:20;;;;;;;11.37;6.77;;;16.90;48.90;;;;;;4989677;28;20212;-74
2023/06/02 10:13:04;;;;;;;13.70;6.40;;;16.70;49.80;;;;;;4989389;28;20420;-76
2023/06/02 10:15:55;;;;;;;13.13;7.27;;;16.80;49.90;;;;;;4996707;28;20416;-74
2023/06/02 10:18:48;;;;;;;10.73;7.90;;;16.90;49.30;;;;;;4973332;28;20420;-75
2023/06/02 10:21:45;;;;;;;13.90;7.07;;;16.80;49.00;;;;;;4972176;28;20417;-75
2023/06/02 10:24:41;;;;;;;17.40;8.03;;;16.90;49.60;;;;;;4952313;29;20887;-76
2023/06/02 10:27:07;;;;;;;16.17;8.83;;;17.10;48.90;;;;;;4956678;29;20456;-79
2023/06/02 10:29:34;;;;;;;11.83;6.03;;;17.00;49.00;;;;;;4957434;29;20432;-79
2023/06/02 10:32:15;;;;;;;15.87;7.17;;;16.80;49.50;;;;;;4974732;29;20581;-78
2023/06/02 10:34:41;;;;;;;15.13;7.10;;;16.60;49.90;;;;;;4972274;28;20435;-79
2023/06/02 10:37:34;;;;;;;10.33;5.90;;;16.60;49.80;;;;;;4990775;28;20440;-79
2023/06/02 10:40:00;;;;;;;7.80;6.53;;;16.70;50.20;;;;;;4936639;29;20435;-78
2023/06/02 10:42:30;;;;;;;18.40;7.23;;;17.00;50.10;;;;;;4935407;29;20415;-79
2023/06/02 10:45:17;;;;;;;13.37;6.83;;;17.20;49.40;;;;;;4916130;29;20491;-77
2023/06/02 10:47:46;;;;;;;11.43;6.13;;;17.10;48.90;;;;;;4931457;29;20462;-79
2023/06/02 10:50:21;;;;;;;9.13;6.07;;;17.00;49.70;;;;;;4921529;29;20442;-78
2023/06/02 10:52:59;;;;;;;12.97;6.90;;;17.00;50.00;;;;;;4921939;29;20481;-78
2023/06/02 10:55:34;;;;;;;12.67;7.43;;;17.10;49.60;;;;;;4955881;29;20503;-77
2023/06/02 10:58:05;;;;;;;13.47;7.00;;;17.10;49.30;;;;;;4974284;29;20439;-79
2023/06/02 11:00:52;;;;;;;14.23;8.53;;;17.20;49.70;;;;;;4930587;29;20674;-79
2023/06/02 11:03:18;;;;;;;14.60;8.33;;;17.20;49.70;;;;;;4919800;29;20443;-80
2023/06/02 11:05:45;;;;;;;14.17;7.97;;;17.20;49.20;;;;;;4931886;29;20446;-78
2023/06/02 11:08:11;;;;;;;13.43;7.23;;;17.20;49.40;;;;;;4935254;29;20294;-79
2023/06/02 11:11:15;;;;;;;16.37;8.10;;;17.20;50.10;;;;;;4919142;29;20445;-80
2023/06/02 11:14:09;;;;;;;11.70;8.20;;;17.00;49.40;;;;;;4915830;29;20222;-79
2023/06/02 11:17:47;;;;;;;12.57;8.60;;;17.00;49.50;;;;;;4925487;29;20422;-80
2023/06/02 11:20:36;;;;;;;11.80;7.70;;;17.00;49.30;;;;;;4960069;28;20443;-75
2023/06/02 11:23:09;;;;;;;14.83;8.20;;;16.90;49.30;;;;;;4992905;28;20408;-79
2023/06/02 11:26:07;;;;;;;11.13;7.30;;;17.00;49.20;;;;;;4995463;28;20412;-79
2023/06/02 11:31:22;;;;;;;12.03;8.50;;;17.10;49.30;;;;;;1447569;26;20487;-80
2023/06/02 11:33:52;;;;;;;13.37;8.90;;;17.10;48.50;;;;;;4930118;29;20424;-79
2023/06/02 11:45:31;;;;;;;10.77;6.23;;;17.30;48.60;;;;;;5402752;23;20487;-81
2023/06/02 11:51:41;;;;;;;13.20;7.60;;;17.40;48.10;;;;;;5326947;23;20483;-81
2023/06/02 11:54:10;;;;;;;14.83;8.30;;;17.50;48.00;;;;;;5000169;28;20447;-79
2023/06/02 11:56:37;;;;;;;12.50;9.00;;;17.50;47.60;;;;;;4984028;28;20495;-79
2023/06/02 11:59:04;;;;;;;9.90;7.67;;;17.60;47.00;;;;;;4960296;28;20443;-78
2023/06/02 12:01:34;;;;;;;12.07;8.50;;;17.50;47.20;;;;;;4922549;29;20450;-79
2023/06/02 12:04:03;;;;;;;8.67;7.60;;;17.50;47.20;;;;;;4942414;29;20173;-79
2023/06/02 12:06:50;;;;;;;15.40;9.23;;;17.50;47.10;;;;;;4961433;29;20409;-79
2023/06/02 12:09:27;;;;;;;14.97;9.77;;;17.70;46.90;;;;;;4941615;29;20449;-77
2023/06/02 12:12:07;;;;;;;12.70;8.77;;;17.80;46.20;;;;;;4945031;29;20423;-80
2023/06/02 12:22:06;;;;;;;12.90;7.67;;;18.00;45.80;;;;;;4778982;23;20495;-80
2023/06/02 12:24:49;;;;;;;11.60;8.33;;;18.00;45.60;;;;;;4999649;28;20509;-82
2023/06/02 12:31:36;;;;;;;9.63;6.87;;;18.00;45.90;;;;;;4886664;29;20431;-78
2023/06/02 12:34:12;;;;;;;10.33;6.67;;;18.00;46.20;;;;;;4858498;29;20447;-79
2023/06/02 12:36:40;;;;;;;8.07;6.93;;;18.00;45.80;;;;;;4867936;29;20438;-79
2023/06/02 12:42:49;;;;;;;10.10;5.40;;;18.10;45.40;;;;;;4768948;29;20235;-79
2023/06/02 12:45:15;;;;;;;9.10;5.93;;;18.10;45.00;;;;;;4829139;29;20420;-81
2023/06/02 12:47:44;;;;;;;9.00;6.13;;;18.20;45.10;;;;;;5014598;23;20617;-78
2023/06/02 12:50:11;;;;;;;11.20;5.83;;;18.30;45.00;;;;;;4990504;28;20465;-79
2023/06/02 12:52:43;;;;;;;12.60;6.37;;;18.30;44.90;;;;;;4964178;28;20397;-80
2023/06/02 12:58:45;;;;;;;12.20;6.27;;;18.50;44.60;;;;;;5166658;23;20519;-80
2023/06/02 13:01:13;;;;;;;9.00;4.83;;;18.40;43.90;;;;;;4978911;28;20451;-78
2023/06/02 13:03:42;;;;;;;10.53;4.77;;;18.50;44.00;;;;;;4969831;28;20713;-79
2023/06/02 13:06:09;;;;;;;12.57;5.40;;;18.60;43.60;;;;;;4990476;28;20497;-77
2023/06/02 13:08:41;;;;;;;13.03;6.00;;;18.80;43.20;;;;;;4995795;28;20480;-79
2023/06/02 13:11:07;;;;;;;9.13;3.73;;;18.80;42.60;;;;;;4977242;28;20439;-77
2023/06/02 13:13:33;;;;;;;10.70;5.33;;;18.80;42.80;;;;;;4951868;28;20450;-76
2023/06/02 13:16:07;;;;;;;9.77;5.10;;;18.90;42.90;;;;;;4936174;29;20454;-79
2023/06/02 13:18:35;;;;;;;8.30;4.57;;;18.90;43.10;;;;;;4919606;29;20181;-78
2023/06/02 13:21:01;;;;;;;6.33;4.60;;;18.90;43.30;;;;;;4922248;29;20430;-74
2023/06/02 13:23:26;;;;;;;8.33;5.13;;;18.90;43.50;;;;;;4931763;29;20555;-73